Time;durP1;ratioP1;P1;durP2;ratioP2;P2;SDS_P1;SDS_P2;PMS_P1;PMS_P2;Temp;Humidity;BMP_temperature;BMP_pressure;BME280_temperature;BME280_humidity;BME280_pressure;Samples;Min_cycle;Max_cycle;Signal;HPM_P1;HPM_P2
2021/06/03 00:00:27;;;;;;;3.60;1.65;;;12.60;78.50;;;;;;5053239;28;20168;-73
2021/06/03 00:02:54;;;;;;;5.25;2.00;;;12.50;78.30;;;;;;5049305;28;20183;-73
2021/06/03 00:05:22;;;;;;;1.60;1.50;;;12.50;78.30;;;;;;5049900;28;20244;-74
2021/06/03 00:07:49;;;;;;;2.92;1.63;;;12.50;78.60;;;;;;5045673;28;20214;-73
2021/06/03 00:10:15;;;;;;;4.57;1.80;;;12.40;78.80;;;;;;5050942;28;20183;-73
2021/06/03 00:12:42;;;;;;;4.68;1.52;;;12.30;79.00;;;;;;5050743;28;20199;-74
2021/06/03 00:15:11;;;;;;;4.57;1.33;;;12.30;78.90;;;;;;5056005;28;20273;-74
2021/06/03 00:17:37;;;;;;;3.65;1.50;;;12.20;79.30;;;;;;5047152;28;20198;-72
2021/06/03 00:20:09;;;;;;;2.60;2.20;;;12.20;79.40;;;;;;5037496;28;20188;-71
2021/06/03 00:22:34;;;;;;;6.35;1.83;;;12.10;79.30;;;;;;5038828;28;20188;-74
2021/06/03 00:25:00;;;;;;;1.60;1.50;;;12.10;79.60;;;;;;5052453;28;20747;-74
2021/06/03 00:27:26;;;;;;;1.42;1.42;;;12.00;79.60;;;;;;5055184;28;20253;-73
2021/06/03 00:29:52;;;;;;;6.72;1.40;;;12.00;79.70;;;;;;5047574;28;20183;-74
2021/06/03 00:32:17;;;;;;;1.63;1.63;;;11.90;79.70;;;;;;5048084;28;20195;-73
2021/06/03 00:34:43;;;;;;;2.83;1.20;;;11.90;80.00;;;;;;5047239;28;20684;-71
2021/06/03 00:37:09;;;;;;;7.57;1.48;;;11.80;80.00;;;;;;5051696;28;20191;-72
2021/06/03 00:39:35;;;;;;;4.05;1.55;;;11.70;80.20;;;;;;5047719;28;20241;-72
2021/06/03 00:42:00;;;;;;;2.30;1.38;;;11.70;80.40;;;;;;5047072;28;20286;-73
2021/06/03 00:44:26;;;;;;;2.00;1.45;;;11.60;80.70;;;;;;5047631;28;20691;-74
2021/06/03 00:46:52;;;;;;;2.08;1.88;;;11.60;80.60;;;;;;5057491;28;20194;-72
2021/06/03 00:49:17;;;;;;;1.50;1.45;;;11.50;80.70;;;;;;5047329;28;20190;-74
2021/06/03 00:51:43;;;;;;;1.30;1.30;;;11.50;81.00;;;;;;5046148;28;20220;-71
2021/06/03 00:54:09;;;;;;;2.63;1.38;;;11.50;81.00;;;;;;5047641;28;20651;-72
2021/06/03 00:56:37;;;;;;;1.63;1.63;;;11.40;80.80;;;;;;5051118;28;20247;-72
2021/06/03 00:59:04;;;;;;;2.10;1.60;;;11.40;80.70;;;;;;5041622;28;20199;-72
2021/06/03 01:01:30;;;;;;;3.92;2.10;;;11.40;80.80;;;;;;5041076;28;20191;-72
2021/06/03 01:03:56;;;;;;;4.50;1.77;;;11.30;81.10;;;;;;5050864;28;20238;-72
2021/06/03 01:06:22;;;;;;;7.88;2.00;;;11.30;81.20;;;;;;5039026;28;20191;-72
2021/06/03 01:09:09;;;;;;;3.85;1.60;;;11.30;81.30;;;;;;5041525;28;20227;-73
2021/06/03 01:11:58;;;;;;;1.35;1.35;;;11.20;81.40;;;;;;5057100;28;20715;-73
2021/06/03 01:14:32;;;;;;;1.38;1.38;;;11.20;81.70;;;;;;5048632;28;20270;-72
2021/06/03 01:16:59;;;;;;;1.67;1.52;;;11.20;81.60;;;;;;5045990;28;20202;-72
2021/06/03 01:19:37;;;;;;;1.85;1.80;;;11.20;81.70;;;;;;5045037;28;20250;-72
2021/06/03 01:22:19;;;;;;;1.20;1.20;;;11.20;82.30;;;;;;5053582;28;20690;-72
2021/06/03 01:25:06;;;;;;;1.63;1.63;;;11.10;82.20;;;;;;5057290;28;20241;-72
2021/06/03 01:27:33;;;;;;;2.08;1.98;;;11.10;82.10;;;;;;5052004;28;20218;-73
2021/06/03 01:30:03;;;;;;;2.58;2.03;;;11.10;82.20;;;;;;5044974;28;20175;-72
2021/06/03 01:32:30;;;;;;;4.30;2.03;;;11.00;82.10;;;;;;5051721;28;20202;-72
2021/06/03 01:34:57;;;;;;;1.95;1.95;;;11.00;82.20;;;;;;5047483;28;20199;-73
2021/06/03 01:37:23;;;;;;;3.10;2.13;;;11.00;82.20;;;;;;5056245;28;20698;-72
2021/06/03 01:39:50;;;;;;;2.45;2.30;;;11.00;82.20;;;;;;5049466;28;20259;-74
2021/06/03 01:42:17;;;;;;;5.88;3.08;;;10.90;82.20;;;;;;5051663;28;20207;-74
2021/06/03 01:44:43;;;;;;;3.05;2.80;;;10.90;82.30;;;;;;5050531;28;20174;-72
2021/06/03 01:47:10;;;;;;;2.40;2.30;;;10.90;82.40;;;;;;5049414;28;20212;-74
2021/06/03 01:49:37;;;;;;;6.30;2.05;;;10.90;82.50;;;;;;5046715;28;20634;-74
2021/06/03 01:52:05;;;;;;;2.03;1.75;;;10.90;82.50;;;;;;5047865;28;20179;-72
2021/06/03 01:54:32;;;;;;;2.63;2.30;;;10.90;82.40;;;;;;5047480;28;20188;-72
2021/06/03 01:56:58;;;;;;;2.78;2.33;;;10.90;82.50;;;;;;5050284;28;20266;-73
2021/06/03 01:59:24;;;;;;;6.72;2.10;;;10.80;82.50;;;;;;5049000;28;20210;-72
2021/06/03 02:01:50;;;;;;;1.63;1.63;;;10.80;82.50;;;;;;5060646;28;20207;-73
2021/06/03 02:04:16;;;;;;;2.08;1.67;;;10.80;82.70;;;;;;5055016;28;20226;-73
2021/06/03 02:06:44;;;;;;;1.70;1.60;;;10.80;82.70;;;;;;5052689;28;20179;-73
2021/06/03 02:09:12;;;;;;;1.70;1.60;;;10.80;82.60;;;;;;5048173;28;20219;-72
2021/06/03 02:11:40;;;;;;;2.25;1.55;;;10.70;82.60;;;;;;5053890;28;20179;-72
2021/06/03 02:14:09;;;;;;;3.80;1.60;;;10.70;82.40;;;;;;5038625;28;20637;-72
2021/06/03 02:16:46;;;;;;;1.80;1.73;;;10.80;82.60;;;;;;5055077;28;20630;-73
2021/06/03 02:19:24;;;;;;;1.52;1.33;;;10.80;82.60;;;;;;5056304;28;20187;-73
2021/06/03 02:21:51;;;;;;;1.50;1.40;;;10.80;82.80;;;;;;5051003;28;20857;-73
2021/06/03 02:24:17;;;;;;;1.50;1.40;;;10.70;83.30;;;;;;5051329;28;20574;-73
2021/06/03 02:26:43;;;;;;;1.92;1.83;;;10.70;83.60;;;;;;5054555;28;20188;-73
2021/06/03 02:29:11;;;;;;;1.88;1.77;;;10.70;83.80;;;;;;5054104;28;20263;-73
2021/06/03 02:31:37;;;;;;;1.88;1.77;;;10.70;84.20;;;;;;5060446;28;20192;-73
2021/06/03 02:34:04;;;;;;;2.10;1.55;;;10.60;84.60;;;;;;5050148;28;20675;-73
2021/06/03 02:36:31;;;;;;;3.53;1.90;;;10.60;85.00;;;;;;5046615;28;20179;-73
2021/06/03 02:38:57;;;;;;;2.87;1.90;;;10.60;85.10;;;;;;5050063;28;20172;-73
2021/06/03 02:41:23;;;;;;;1.52;1.52;;;10.50;85.50;;;;;;5057270;28;20183;-72
2021/06/03 02:43:49;;;;;;;2.60;1.80;;;10.50;85.80;;;;;;5049301;28;20183;-74
2021/06/03 02:46:16;;;;;;;2.25;1.90;;;10.50;85.80;;;;;;5048800;28;20191;-74
2021/06/03 02:48:42;;;;;;;1.75;1.65;;;10.50;86.00;;;;;;5059116;28;20222;-74
2021/06/03 02:51:08;;;;;;;3.07;1.60;;;10.40;86.10;;;;;;5047940;28;20279;-74
2021/06/03 02:53:34;;;;;;;1.88;1.85;;;10.40;85.90;;;;;;5042442;28;20183;-74
2021/06/03 02:55:59;;;;;;;2.15;1.50;;;10.40;86.10;;;;;;5054776;28;20175;-74
2021/06/03 02:58:26;;;;;;;5.60;1.73;;;10.40;86.20;;;;;;5050381;28;20187;-75
2021/06/03 03:00:51;;;;;;;1.83;1.73;;;10.30;86.20;;;;;;5054127;28;20188;-74
2021/06/03 03:03:18;;;;;;;2.38;2.28;;;10.30;86.60;;;;;;5055447;28;20728;-73
2021/06/03 03:05:45;;;;;;;3.70;1.90;;;10.30;86.80;;;;;;5050054;28;20684;-74
2021/06/03 03:08:11;;;;;;;1.42;1.42;;;10.20;86.80;;;;;;5052885;28;20594;-74
2021/06/03 03:10:40;;;;;;;3.47;2.25;;;10.20;86.60;;;;;;5045619;28;20176;-74
2021/06/03 03:13:07;;;;;;;2.05;1.95;;;10.20;86.60;;;;;;5048890;28;20184;-74
2021/06/03 03:15:34;;;;;;;1.95;1.90;;;10.20;86.80;;;;;;5050042;28;20202;-73
2021/06/03 03:17:59;;;;;;;2.00;2.00;;;10.10;86.60;;;;;;5049294;28;20191;-74
2021/06/03 03:20:27;;;;;;;2.25;2.13;;;10.10;86.50;;;;;;5057025;28;20706;-73
2021/06/03 03:22:54;;;;;;;5.10;2.28;;;10.10;86.70;;;;;;5054322;28;20262;-74
2021/06/03 03:25:21;;;;;;;2.42;2.33;;;10.10;86.60;;;;;;5042474;28;20260;-74
2021/06/03 03:27:49;;;;;;;1.92;1.63;;;10.10;86.60;;;;;;5049949;28;20214;-73
2021/06/03 03:30:17;;;;;;;3.50;2.40;;;10.10;86.70;;;;;;5044734;28;20180;-73
2021/06/03 03:32:43;;;;;;;2.72;2.60;;;10.10;86.90;;;;;;5047437;28;20191;-73
2021/06/03 03:35:10;;;;;;;1.88;1.77;;;10.10;87.10;;;;;;5046394;28;20196;-73
2021/06/03 03:37:37;;;;;;;2.20;2.08;;;10.10;87.20;;;;;;5044543;28;20712;-73
2021/06/03 03:40:08;;;;;;;2.30;2.08;;;10.10;87.20;;;;;;5046871;28;20179;-73
2021/06/03 03:42:35;;;;;;;2.00;1.92;;;10.10;87.10;;;;;;5045364;28;20183;-73
2021/06/03 03:45:00;;;;;;;2.67;2.00;;;10.20;87.20;;;;;;5046531;28;20747;-73
2021/06/03 03:47:26;;;;;;;2.25;2.03;;;10.20;87.00;;;;;;5047122;28;20220;-74
2021/06/03 03:49:52;;;;;;;9.82;1.65;;;10.20;86.90;;;;;;5043459;28;20678;-73
2021/06/03 03:52:17;;;;;;;2.53;1.90;;;10.20;86.80;;;;;;5045727;28;20272;-74
2021/06/03 03:54:43;;;;;;;2.38;1.95;;;10.20;87.00;;;;;;5046337;28;20705;-73
2021/06/03 03:57:09;;;;;;;3.13;2.08;;;10.20;87.00;;;;;;5046709;28;20180;-73
2021/06/03 03:59:36;;;;;;;1.98;1.88;;;10.30;86.80;;;;;;5044001;28;20262;-74
2021/06/03 04:02:03;;;;;;;1.67;1.58;;;10.30;86.90;;;;;;5053325;28;20226;-74
2021/06/03 04:04:28;;;;;;;3.37;1.70;;;10.30;86.80;;;;;;5059447;28;20262;-75
2021/06/03 04:06:57;;;;;;;1.67;1.67;;;10.40;86.60;;;;;;5055273;28;20212;-74
2021/06/03 04:09:23;;;;;;;1.95;1.85;;;10.40;86.30;;;;;;5051168;28;20628;-74
2021/06/03 04:11:48;;;;;;;5.38;1.90;;;10.50;86.10;;;;;;5054410;28;20188;-74
2021/06/03 04:14:14;;;;;;;1.92;1.90;;;10.50;85.90;;;;;;5052428;28;20222;-74
2021/06/03 04:16:40;;;;;;;2.47;1.83;;;10.60;85.70;;;;;;5055714;28;20187;-74
2021/06/03 04:19:06;;;;;;;2.13;1.98;;;10.70;85.30;;;;;;5053837;28;20198;-75
2021/06/03 04:21:32;;;;;;;2.25;2.20;;;10.80;85.30;;;;;;5054501;28;20176;-74
2021/06/03 04:23:59;;;;;;;1.95;1.95;;;10.90;85.70;;;;;;5053332;28;20183;-75
2021/06/03 04:26:25;;;;;;;3.28;2.40;;;11.00;85.60;;;;;;5057427;28;20183;-75
2021/06/03 04:28:50;;;;;;;2.30;2.13;;;11.10;85.30;;;;;;5052371;28;20208;-74
2021/06/03 04:31:16;;;;;;;2.88;1.90;;;11.20;85.40;;;;;;5050000;28;20175;-74
2021/06/03 04:33:42;;;;;;;3.38;2.03;;;11.30;85.60;;;;;;5049982;28;20535;-74
2021/06/03 04:36:08;;;;;;;5.78;2.55;;;11.50;85.40;;;;;;5048702;28;20183;-73
2021/06/03 04:38:35;;;;;;;2.33;2.22;;;11.60;85.40;;;;;;5055358;28;20180;-73
2021/06/03 04:41:00;;;;;;;4.03;2.53;;;11.80;85.10;;;;;;5047569;28;20199;-73
2021/06/03 04:43:27;;;;;;;2.65;2.42;;;11.90;85.20;;;;;;5049032;28;20551;-76
2021/06/03 04:45:52;;;;;;;3.42;3.10;;;12.00;85.00;;;;;;5047574;28;20594;-74
2021/06/03 04:48:18;;;;;;;2.75;2.55;;;12.10;84.80;;;;;;5051251;28;20222;-72
2021/06/03 04:50:45;;;;;;;2.70;2.60;;;12.30;84.30;;;;;;5052595;28;20716;-74
2021/06/03 04:53:11;;;;;;;2.00;1.90;;;12.40;84.20;;;;;;5047273;28;20639;-73
2021/06/03 04:55:37;;;;;;;2.35;1.58;;;12.60;82.80;;;;;;5043573;28;20180;-71
2021/06/03 04:58:05;;;;;;;1.30;1.30;;;12.80;81.80;;;;;;5048412;28;20191;-72
2021/06/03 05:00:34;;;;;;;1.30;1.30;;;13.10;80.90;;;;;;5057651;28;20187;-72
2021/06/03 05:03:02;;;;;;;1.33;1.33;;;13.30;79.80;;;;;;5055842;28;20847;-73
2021/06/03 05:05:29;;;;;;;1.65;1.30;;;13.60;79.50;;;;;;5055217;28;21008;-73
2021/06/03 05:07:56;;;;;;;1.70;1.60;;;13.90;78.60;;;;;;5056334;28;20210;-72
2021/06/03 05:10:24;;;;;;;1.67;1.58;;;14.10;78.00;;;;;;5057838;28;20183;-73
2021/06/03 05:12:50;;;;;;;2.33;1.25;;;14.30;76.60;;;;;;5055442;28;20188;-71
2021/06/03 05:15:16;;;;;;;1.58;1.55;;;14.40;74.20;;;;;;5056086;28;20278;-72
2021/06/03 05:17:42;;;;;;;1.70;1.60;;;14.50;74.70;;;;;;5059593;28;20652;-71
2021/06/03 05:20:11;;;;;;;1.45;1.35;;;14.70;75.00;;;;;;5050356;28;20263;-72
2021/06/03 05:22:37;;;;;;;1.60;1.50;;;14.80;74.40;;;;;;5044167;28;20297;-72
2021/06/03 05:25:08;;;;;;;1.60;1.60;;;14.90;73.60;;;;;;5046359;28;20183;-71
2021/06/03 05:27:34;;;;;;;2.47;1.80;;;15.00;72.80;;;;;;5050460;28;20306;-71
2021/06/03 05:30:00;;;;;;;1.52;1.52;;;15.00;72.90;;;;;;5043163;28;20278;-72
2021/06/03 05:32:26;;;;;;;2.83;1.70;;;15.10;73.30;;;;;;5050722;28;20759;-71
2021/06/03 05:34:51;;;;;;;1.88;1.45;;;15.20;72.40;;;;;;5050865;28;20187;-72
2021/06/03 05:37:17;;;;;;;1.52;1.42;;;15.20;72.00;;;;;;5050399;28;20184;-72
2021/06/03 05:39:43;;;;;;;4.00;1.30;;;15.30;72.40;;;;;;5049290;28;20749;-72
2021/06/03 05:42:09;;;;;;;1.48;1.40;;;15.40;72.30;;;;;;5049344;28;20188;-71
2021/06/03 05:44:35;;;;;;;1.23;1.23;;;15.40;71.70;;;;;;5050564;28;20176;-71
2021/06/03 05:47:00;;;;;;;2.88;1.13;;;15.50;71.50;;;;;;5050198;28;20613;-72
2021/06/03 05:49:29;;;;;;;1.67;1.45;;;15.50;71.00;;;;;;5050761;28;20713;-72
2021/06/03 05:51:55;;;;;;;4.47;1.67;;;15.60;71.40;;;;;;5064547;28;20184;-72
2021/06/03 05:54:21;;;;;;;7.32;1.35;;;15.70;70.60;;;;;;5049732;28;20182;-72
2021/06/03 05:56:47;;;;;;;1.55;1.50;;;15.70;70.20;;;;;;5049367;28;20206;-71
2021/06/03 05:59:13;;;;;;;2.58;1.75;;;15.70;70.40;;;;;;5050355;28;20180;-72
2021/06/03 06:01:38;;;;;;;1.52;1.42;;;15.70;70.30;;;;;;5050734;28;20673;-71
2021/06/03 06:06:31;;;;;;;2.00;1.65;;;15.60;70.40;;;;;;5050256;28;20206;-72
2021/06/03 06:09:01;;;;;;;1.70;1.60;;;15.70;70.60;;;;;;5049923;28;20266;-71
2021/06/03 06:11:30;;;;;;;1.50;1.40;;;15.70;70.20;;;;;;5050211;28;20191;-73
2021/06/03 06:13:57;;;;;;;1.52;1.42;;;15.70;70.30;;;;;;5044033;28;20333;-73
2021/06/03 06:16:23;;;;;;;2.47;1.70;;;15.70;69.70;;;;;;5049935;28;20267;-73
2021/06/03 06:18:48;;;;;;;1.83;1.30;;;15.70;69.30;;;;;;5049865;28;20267;-71
2021/06/03 06:21:18;;;;;;;1.75;1.48;;;15.70;69.30;;;;;;5049753;28;20183;-73
2021/06/03 06:23:44;;;;;;;1.48;1.48;;;15.70;69.90;;;;;;5049635;28;20178;-72
2021/06/03 06:26:10;;;;;;;1.58;1.20;;;15.70;69.50;;;;;;5049778;28;20187;-72
2021/06/03 06:28:36;;;;;;;1.98;1.20;;;15.70;69.30;;;;;;5049597;28;20630;-72
2021/06/03 06:31:03;;;;;;;1.83;1.63;;;15.70;69.50;;;;;;5049906;28;20180;-72
2021/06/03 06:33:29;;;;;;;1.80;1.70;;;15.70;69.00;;;;;;5049400;28;20198;-72
2021/06/03 06:35:54;;;;;;;1.85;1.85;;;15.70;69.20;;;;;;5049620;28;20699;-73
2021/06/03 06:38:22;;;;;;;1.67;1.52;;;15.70;69.70;;;;;;5049447;28;20188;-73
2021/06/03 06:40:49;;;;;;;1.35;1.35;;;15.80;70.00;;;;;;5048701;28;20180;-73
2021/06/03 06:43:15;;;;;;;1.67;1.50;;;15.80;69.80;;;;;;5043840;28;20186;-73
2021/06/03 06:45:41;;;;;;;1.52;1.20;;;16.00;69.40;;;;;;5049407;28;20274;-74
2021/06/03 06:48:08;;;;;;;2.63;2.00;;;16.10;69.70;;;;;;5049112;28;20639;-73
2021/06/03 06:50:36;;;;;;;1.17;1.17;;;16.30;70.00;;;;;;5049192;28;20180;-72
2021/06/03 06:53:03;;;;;;;1.60;1.60;;;16.40;69.50;;;;;;5049397;28;20225;-72
2021/06/03 06:55:28;;;;;;;2.88;2.00;;;16.40;68.20;;;;;;5049480;28;20183;-72
2021/06/03 06:57:55;;;;;;;1.55;1.55;;;16.50;68.00;;;;;;5049468;28;20195;-73
2021/06/03 07:00:23;;;;;;;1.73;1.63;;;16.40;67.00;;;;;;5047974;28;20552;-72
2021/06/03 07:02:50;;;;;;;1.33;1.33;;;16.40;66.50;;;;;;5047919;28;20172;-72
2021/06/03 07:05:16;;;;;;;1.90;1.80;;;16.30;66.00;;;;;;5049836;28;20191;-73
2021/06/03 07:07:42;;;;;;;1.77;1.77;;;16.30;67.10;;;;;;5047753;28;20646;-72
2021/06/03 07:10:10;;;;;;;2.75;1.25;;;16.40;67.30;;;;;;5049079;28;20563;-72
2021/06/03 07:12:36;;;;;;;1.27;1.17;;;16.30;66.70;;;;;;5048907;28;20184;-72
2021/06/03 07:15:07;;;;;;;1.50;1.30;;;16.30;66.90;;;;;;5048883;28;20204;-73
2021/06/03 07:17:33;;;;;;;1.60;1.50;;;16.30;67.30;;;;;;5048579;28;20211;-72
2021/06/03 07:19:59;;;;;;;1.58;1.35;;;16.40;67.30;;;;;;5048197;28;20215;-72
2021/06/03 07:22:25;;;;;;;1.48;1.48;;;16.40;66.50;;;;;;5048211;28;20203;-72
2021/06/03 07:24:51;;;;;;;1.92;1.58;;;16.40;66.20;;;;;;5048285;28;20175;-73
2021/06/03 07:27:17;;;;;;;1.20;1.20;;;16.50;66.80;;;;;;5048697;28;20180;-73
2021/06/03 07:29:43;;;;;;;1.50;1.50;;;16.50;66.10;;;;;;5048390;28;20207;-72
2021/06/03 07:32:09;;;;;;;1.40;1.40;;;16.50;66.80;;;;;;5048550;28;20206;-73
2021/06/03 07:34:35;;;;;;;2.30;1.60;;;16.60;66.90;;;;;;5048608;28;20204;-72
2021/06/03 07:37:01;;;;;;;2.60;1.52;;;16.60;66.60;;;;;;5048654;28;20182;-74
2021/06/03 07:39:28;;;;;;;1.58;1.58;;;16.60;66.70;;;;;;5050924;28;20191;-73
2021/06/03 07:41:54;;;;;;;1.40;1.40;;;16.60;66.00;;;;;;5052828;28;20214;-72
2021/06/03 07:44:20;;;;;;;2.65;1.35;;;16.70;65.60;;;;;;5047401;28;20179;-73
2021/06/03 07:46:46;;;;;;;1.48;1.42;;;16.70;65.60;;;;;;5048142;28;20276;-72
2021/06/03 07:49:13;;;;;;;1.90;1.27;;;16.70;65.10;;;;;;5054501;28;20238;-73
2021/06/03 07:51:42;;;;;;;2.05;1.50;;;16.80;64.60;;;;;;5051890;28;20623;-73
2021/06/03 07:54:08;;;;;;;1.33;1.33;;;16.80;64.70;;;;;;5048038;28;20184;-73
2021/06/03 07:56:35;;;;;;;1.33;1.20;;;16.80;65.20;;;;;;5047923;28;20179;-72
2021/06/03 07:59:01;;;;;;;1.20;1.20;;;16.90;65.30;;;;;;5050260;28;20183;-73
2021/06/03 08:01:27;;;;;;;1.70;1.27;;;16.90;65.00;;;;;;5050741;28;20205;-73
2021/06/03 08:03:53;;;;;;;1.20;1.20;;;16.90;64.70;;;;;;5048702;28;20241;-72
2021/06/03 08:06:19;;;;;;;1.70;1.60;;;16.90;64.50;;;;;;5047966;28;20190;-73
2021/06/03 08:08:44;;;;;;;1.10;1.10;;;16.90;65.40;;;;;;5042602;28;20219;-72
2021/06/03 08:11:11;;;;;;;1.73;1.63;;;16.90;64.60;;;;;;5047864;28;20653;-73
2021/06/03 08:13:37;;;;;;;2.58;1.50;;;16.90;63.90;;;;;;5042387;28;20203;-72
2021/06/03 08:16:04;;;;;;;1.10;1.10;;;16.90;64.30;;;;;;5045644;28;20188;-73
2021/06/03 08:18:30;;;;;;;1.20;1.20;;;16.90;63.90;;;;;;5057622;28;20254;-72
2021/06/03 08:20:58;;;;;;;1.27;1.27;;;17.00;64.00;;;;;;5057546;28;20182;-72
2021/06/03 08:23:26;;;;;;;1.67;1.58;;;17.00;64.20;;;;;;5055434;28;20192;-72
2021/06/03 08:25:52;;;;;;;2.00;1.50;;;17.10;64.00;;;;;;5053932;28;20202;-72
2021/06/03 08:28:18;;;;;;;1.63;1.55;;;17.20;64.60;;;;;;5056045;28;20216;-71
2021/06/03 08:30:45;;;;;;;1.17;1.10;;;17.30;63.70;;;;;;5056265;28;20190;-71
2021/06/03 08:33:11;;;;;;;1.52;1.52;;;17.30;62.60;;;;;;5055903;28;20179;-71
2021/06/03 08:35:38;;;;;;;1.52;1.48;;;17.30;63.00;;;;;;5055974;28;20183;-71
2021/06/03 08:38:06;;;;;;;1.17;0.95;;;17.40;63.70;;;;;;5055408;28;20669;-71
2021/06/03 08:40:35;;;;;;;1.52;1.50;;;17.50;63.60;;;;;;5056294;28;20189;-71
2021/06/03 08:43:02;;;;;;;1.30;1.20;;;17.50;63.50;;;;;;5056882;28;20179;-71
2021/06/03 08:45:30;;;;;;;1.50;1.50;;;17.70;62.90;;;;;;5054945;28;20194;-71
2021/06/03 08:47:57;;;;;;;1.13;1.13;;;17.70;62.70;;;;;;5056281;28;20694;-71
2021/06/03 08:50:27;;;;;;;1.50;1.33;;;17.70;61.30;;;;;;5055143;28;20651;-72
2021/06/03 08:52:55;;;;;;;1.20;1.20;;;17.80;62.00;;;;;;5055260;28;20684;-72
2021/06/03 08:58:09;;;;;;;0.95;0.90;;;17.90;61.20;;;;;;5050646;28;20287;-72
2021/06/03 09:00:37;;;;;;;1.40;1.40;;;17.90;62.40;;;;;;5054975;28;20660;-72
2021/06/03 09:03:04;;;;;;;1.50;1.40;;;18.00;62.20;;;;;;5055494;28;20179;-73
2021/06/03 09:05:29;;;;;;;3.83;1.48;;;18.10;61.50;;;;;;5059847;28;20183;-72
2021/06/03 09:07:56;;;;;;;3.85;1.65;;;18.20;62.70;;;;;;5058952;28;20310;-71
2021/06/03 09:10:25;;;;;;;1.85;1.67;;;18.40;61.80;;;;;;5059657;28;20184;-72
2021/06/03 09:13:17;;;;;;;1.48;1.48;;;18.40;61.10;;;;;;5056523;28;20194;-71
2021/06/03 09:16:08;;;;;;;1.20;1.20;;;18.50;61.70;;;;;;5059840;28;20566;-71
2021/06/03 09:18:36;;;;;;;3.78;2.10;;;18.60;61.90;;;;;;5038654;28;20195;-71
2021/06/03 09:21:26;;;;;;;2.35;2.03;;;18.70;62.00;;;;;;5034795;28;20201;-72
2021/06/03 09:24:02;;;;;;;2.33;1.30;;;18.80;62.40;;;;;;5034642;28;20917;-71
2021/06/03 09:26:30;;;;;;;1.70;1.60;;;18.90;62.40;;;;;;5035323;28;20215;-70
2021/06/03 09:28:58;;;;;;;1.35;1.35;;;19.00;60.40;;;;;;5035394;28;20715;-71
2021/06/03 09:31:26;;;;;;;2.00;1.40;;;18.90;60.50;;;;;;5018552;28;20215;-73
2021/06/03 09:34:09;;;;;;;1.60;1.52;;;18.90;61.00;;;;;;5033397;28;20189;-73
2021/06/03 09:36:49;;;;;;;1.33;1.33;;;18.80;61.00;;;;;;5034164;28;20739;-72
2021/06/03 09:39:33;;;;;;;1.40;1.40;;;18.90;62.00;;;;;;5035895;28;20592;-72
2021/06/03 09:42:04;;;;;;;1.42;1.42;;;18.90;61.00;;;;;;5036699;28;20206;-72
2021/06/03 09:44:40;;;;;;;1.80;1.70;;;18.80;60.00;;;;;;5030948;28;20186;-71
2021/06/03 09:47:07;;;;;;;1.33;1.33;;;18.90;61.60;;;;;;5024796;28;20691;-72
2021/06/03 09:49:57;;;;;;;1.25;1.25;;;19.00;61.60;;;;;;5031896;28;20298;-72
2021/06/03 09:52:34;;;;;;;1.63;1.63;;;19.10;60.80;;;;;;4987378;28;20620;-71
2021/06/03 09:55:24;;;;;;;2.65;1.52;;;19.30;62.00;;;;;;4987626;28;20197;-72
2021/06/03 09:57:55;;;;;;;1.98;1.88;;;19.50;60.60;;;;;;5003759;28;20193;-72
2021/06/03 10:00:22;;;;;;;1.77;1.77;;;19.70;61.70;;;;;;5006474;28;20283;-70
2021/06/03 10:02:55;;;;;;;2.88;2.08;;;19.90;60.60;;;;;;5001963;28;20688;-70
2021/06/03 10:05:22;;;;;;;1.63;1.50;;;20.00;59.20;;;;;;5002393;28;20283;-70
2021/06/03 10:08:02;;;;;;;1.70;1.70;;;20.00;59.00;;;;;;5001926;28;20228;-71
2021/06/03 10:10:30;;;;;;;2.83;1.33;;;20.10;58.80;;;;;;5006980;28;20288;-71
2021/06/03 10:12:57;;;;;;;4.30;1.30;;;20.10;59.30;;;;;;5007243;28;20280;-71
2021/06/03 10:15:25;;;;;;;1.80;1.63;;;20.20;59.50;;;;;;5000831;28;20201;-70
2021/06/03 10:17:52;;;;;;;1.45;1.35;;;20.30;59.50;;;;;;5005449;28;20200;-71
2021/06/03 10:20:24;;;;;;;15.63;2.13;;;20.40;59.30;;;;;;5007564;28;20247;-72
2021/06/03 10:22:53;;;;;;;2.85;1.95;;;20.50;58.80;;;;;;5001353;28;20284;-70
2021/06/03 10:25:30;;;;;;;1.45;1.45;;;20.90;58.70;;;;;;5004849;28;20227;-70
2021/06/03 10:28:11;;;;;;;1.50;1.45;;;21.40;57.90;;;;;;5006609;28;20216;-71
2021/06/03 10:31:12;;;;;;;1.65;1.55;;;22.00;56.80;;;;;;5046960;28;20191;-70
2021/06/03 10:33:39;;;;;;;1.48;1.17;;;22.40;56.30;;;;;;5003246;28;20689;-71
2021/06/03 10:36:08;;;;;;;1.15;1.15;;;23.00;54.50;;;;;;5007774;28;20197;-70
2021/06/03 10:38:35;;;;;;;1.58;1.40;;;23.60;53.70;;;;;;5005749;28;20615;-72
2021/06/03 10:41:07;;;;;;;2.08;1.30;;;24.00;53.40;;;;;;5003536;28;20268;-71
2021/06/03 10:43:36;;;;;;;1.40;1.40;;;24.40;52.80;;;;;;5006855;28;20196;-72
2021/06/03 10:46:05;;;;;;;1.25;1.25;;;24.80;53.70;;;;;;5003012;28;20680;-74
2021/06/03 10:48:31;;;;;;;1.80;1.23;;;25.20;52.00;;;;;;5006762;28;20366;-71
2021/06/03 10:51:03;;;;;;;1.48;1.42;;;25.50;53.30;;;;;;4984227;28;20216;-71
2021/06/03 10:53:30;;;;;;;1.55;1.50;;;25.80;52.90;;;;;;4986716;28;20671;-71
2021/06/03 10:56:27;;;;;;;1.27;1.23;;;26.20;50.30;;;;;;5003988;28;20231;-71
2021/06/03 10:58:53;;;;;;;1.30;1.30;;;26.70;50.10;;;;;;5006867;28;20736;-71
2021/06/03 11:01:20;;;;;;;1.30;1.27;;;27.10;50.10;;;;;;5007673;28;20177;-71
2021/06/03 11:03:50;;;;;;;2.65;1.77;;;27.10;49.70;;;;;;5007620;28;20353;-71
2021/06/03 11:06:19;;;;;;;4.50;1.38;;;27.20;48.90;;;;;;5007268;28;20196;-71
2021/06/03 11:08:48;;;;;;;1.48;1.13;;;27.10;50.50;;;;;;5020215;28;20222;-73
2021/06/03 11:11:13;;;;;;;1.65;1.10;;;26.80;50.60;;;;;;5047657;28;20180;-72
2021/06/03 11:13:48;;;;;;;1.73;1.38;;;27.00;51.50;;;;;;5052126;28;20202;-73
2021/06/03 11:16:19;;;;;;;1.30;1.20;;;27.30;50.00;;;;;;5047778;28;20242;-73
2021/06/03 11:18:44;;;;;;;8.80;1.70;;;27.70;49.40;;;;;;5049069;28;20190;-73
2021/06/03 11:21:29;;;;;;;2.25;1.50;;;28.40;49.10;;;;;;5056941;28;20175;-72
2021/06/03 11:23:55;;;;;;;1.30;1.30;;;28.30;49.10;;;;;;5049370;28;20199;-73
2021/06/03 11:26:46;;;;;;;1.92;1.33;;;27.90;49.60;;;;;;5052815;28;20208;-73
2021/06/03 11:29:28;;;;;;;1.70;1.60;;;27.60;48.70;;;;;;5051409;28;20210;-72
2021/06/03 11:32:06;;;;;;;1.38;1.23;;;27.40;48.80;;;;;;5046188;28;20179;-73
2021/06/03 11:34:43;;;;;;;1.30;1.30;;;27.20;48.80;;;;;;5047170;28;20738;-71
2021/06/03 11:37:35;;;;;;;3.90;1.40;;;27.20;50.40;;;;;;5047377;28;20171;-72
2021/06/03 11:40:03;;;;;;;1.40;1.33;;;26.80;49.90;;;;;;5038564;28;20192;-72
2021/06/03 11:42:34;;;;;;;1.48;1.38;;;26.30;49.80;;;;;;5052796;28;20186;-72
2021/06/03 11:45:07;;;;;;;1.30;1.30;;;26.40;49.90;;;;;;5047864;28;20206;-72
2021/06/03 11:47:41;;;;;;;1.60;1.60;;;26.50;51.30;;;;;;5047630;28;20203;-72
2021/06/03 11:50:16;;;;;;;1.50;1.50;;;26.40;50.10;;;;;;5049148;28;20568;-72
2021/06/03 11:52:56;;;;;;;1.58;1.58;;;25.80;53.00;;;;;;5054192;28;20183;-72
2021/06/03 11:55:33;;;;;;;1.58;1.58;;;25.30;51.60;;;;;;5045277;28;20268;-72
2021/06/03 11:58:13;;;;;;;1.48;1.25;;;25.30;52.80;;;;;;5048956;28;20172;-72
2021/06/03 12:01:03;;;;;;;1.50;1.45;;;25.80;52.40;;;;;;5053263;28;20179;-71
2021/06/03 12:03:33;;;;;;;1.27;1.27;;;26.40;51.60;;;;;;5043749;28;20298;-72
2021/06/03 12:06:17;;;;;;;2.28;1.50;;;26.70;50.70;;;;;;5047480;28;20187;-71
2021/06/03 12:08:52;;;;;;;1.73;1.63;;;26.70;50.50;;;;;;5048568;28;20696;-72
2021/06/03 12:11:22;;;;;;;2.15;1.38;;;27.00;51.90;;;;;;5045604;28;20194;-73
2021/06/03 12:14:08;;;;;;;2.85;1.83;;;27.30;50.10;;;;;;5048588;28;20187;-72
2021/06/03 12:16:43;;;;;;;1.60;1.60;;;27.30;49.60;;;;;;5044539;28;20191;-72
2021/06/03 12:19:11;;;;;;;1.35;1.35;;;27.20;50.90;;;;;;5045449;28;20258;-73
2021/06/03 12:21:37;;;;;;;1.60;1.50;;;26.80;50.40;;;;;;5048678;28;20668;-72
2021/06/03 12:24:04;;;;;;;1.50;1.40;;;26.50;52.10;;;;;;5048676;28;20262;-72
2021/06/03 12:26:30;;;;;;;1.45;1.45;;;26.20;51.70;;;;;;5047963;28;20186;-73
2021/06/03 12:28:56;;;;;;;1.58;1.52;;;26.20;52.30;;;;;;5047675;28;20605;-73
2021/06/03 12:31:44;;;;;;;1.60;1.60;;;26.30;51.80;;;;;;5048460;28;20179;-72
2021/06/03 12:34:21;;;;;;;1.77;1.70;;;26.30;52.70;;;;;;5042414;28;20629;-72
2021/06/03 12:36:47;;;;;;;1.55;1.55;;;26.10;52.90;;;;;;5047698;28;20194;-72
2021/06/03 12:39:13;;;;;;;1.90;1.80;;;25.90;53.40;;;;;;5047799;28;20587;-72
2021/06/03 12:41:40;;;;;;;4.63;1.63;;;25.60;53.10;;;;;;5048912;28;20199;-72
2021/06/03 12:44:17;;;;;;;1.40;1.40;;;25.30;53.00;;;;;;5048209;28;20168;-72
2021/06/03 12:46:52;;;;;;;2.47;1.50;;;25.60;53.50;;;;;;5043417;28;20188;-72
2021/06/03 12:49:19;;;;;;;3.60;1.83;;;26.50;52.10;;;;;;5046021;28;20225;-72
2021/06/03 12:51:58;;;;;;;3.20;1.65;;;27.50;51.20;;;;;;5048296;28;20176;-72
2021/06/03 12:54:34;;;;;;;2.25;1.23;;;27.80;51.10;;;;;;5039514;28;20733;-71
2021/06/03 12:57:03;;;;;;;2.35;1.30;;;27.80;52.00;;;;;;5039828;28;20576;-71
2021/06/03 12:59:31;;;;;;;1.98;1.45;;;27.50;50.50;;;;;;5046401;28;20186;-72
2021/06/03 13:02:04;;;;;;;2.35;1.55;;;27.20;52.00;;;;;;5046950;28;20179;-72